createdAt,value
2023-01-22T00:01:19.407Z,1.00
2023-01-22T00:03:46.941Z,1.00
2023-01-22T00:06:13.929Z,1.00
2023-01-22T00:08:40.597Z,1.00
2023-01-22T00:11:07.228Z,1.00
2023-01-22T00:13:34.929Z,1.00
2023-01-22T00:16:01.669Z,1.00
2023-01-22T00:18:28.355Z,1.00
2023-01-22T00:20:55.162Z,1.00
2023-01-22T00:23:22.247Z,1.00
2023-01-22T00:25:48.878Z,1.00
2023-01-22T00:28:16.839Z,99.90
2023-01-22T00:30:43.559Z,99.90
2023-01-22T00:33:10.196Z,99.90
2023-01-22T00:35:36.858Z,99.90
2023-01-22T00:38:03.832Z,99.90
2023-01-22T00:40:30.498Z,99.90
2023-01-22T00:42:57.114Z,99.90
2023-01-22T00:45:23.927Z,99.90
2023-01-22T00:47:51.939Z,99.90
2023-01-22T00:50:19.065Z,99.90
2023-01-22T00:52:46.033Z,99.90
2023-01-22T00:55:12.661Z,99.90
2023-01-22T00:57:39.362Z,99.90
2023-01-22T01:00:06.857Z,99.90
2023-01-22T01:02:33.483Z,99.90
2023-01-22T01:05:01.915Z,99.90
2023-01-22T01:07:28.548Z,99.90
2023-01-22T01:09:55.405Z,99.90
2023-01-22T01:12:22.006Z,99.90
2023-01-22T01:14:48.805Z,99.90
2023-01-22T01:17:15.412Z,99.90
2023-01-22T01:19:42.229Z,99.90
2023-01-22T01:22:09.074Z,99.90
2023-01-22T01:24:36.522Z,99.90
2023-01-22T01:27:03.535Z,99.90
2023-01-22T01:29:30.192Z,99.90
2023-01-22T01:31:57.881Z,99.90
2023-01-22T01:34:24.673Z,99.90
2023-01-22T01:36:51.334Z,99.90
2023-01-22T01:39:17.933Z,99.90
2023-01-22T01:41:44.587Z,99.90
2023-01-22T01:44:14.037Z,99.90
2023-01-22T01:46:48.580Z,99.90
2023-01-22T01:49:40.921Z,99.90
2023-01-22T01:52:09.545Z,99.90
2023-01-22T01:54:36.402Z,99.90
2023-01-22T01:57:23.819Z,99.90
2023-01-22T01:59:50.626Z,99.90
2023-01-22T02:02:17.325Z,99.90
2023-01-22T02:04:44.001Z,99.90
2023-01-22T02:07:10.640Z,99.90
2023-01-22T02:09:37.254Z,99.90
2023-01-22T02:12:04.125Z,99.90
2023-01-22T02:14:32.911Z,99.90
2023-01-22T02:17:11.513Z,99.90
2023-01-22T02:19:39.085Z,99.90
2023-01-22T02:22:19.490Z,99.90
2023-01-22T02:24:46.325Z,99.90
2023-01-22T02:27:12.978Z,99.90
2023-01-22T02:29:40.149Z,99.90
2023-01-22T02:32:07.211Z,99.90
2023-01-22T02:34:34.291Z,99.90
2023-01-22T02:37:01.257Z,99.90
2023-01-22T02:39:27.887Z,99.90
2023-01-22T02:41:54.715Z,99.90
2023-01-22T02:44:21.381Z,99.90
2023-01-22T02:46:48.030Z,99.90
2023-01-22T02:49:14.691Z,99.90
2023-01-22T02:51:41.324Z,99.90
2023-01-22T02:54:07.949Z,99.90
2023-01-22T02:56:34.854Z,99.90
2023-01-22T02:59:02.228Z,99.90
2023-01-22T03:01:28.875Z,99.90
2023-01-22T03:04:01.548Z,99.90
2023-01-22T03:06:29.276Z,99.90
2023-01-22T03:08:57.236Z,99.90
2023-01-22T03:11:24.585Z,99.90
2023-01-22T03:14:10.594Z,99.90
2023-01-22T03:16:55.658Z,99.90
2023-01-22T03:19:41.561Z,99.90
2023-01-22T03:22:08.308Z,99.90
2023-01-22T03:24:34.989Z,99.90
2023-01-22T03:27:02.118Z,99.90
2023-01-22T03:29:28.729Z,99.90
2023-01-22T03:31:55.429Z,99.90
2023-01-22T03:34:22.522Z,99.90
2023-01-22T03:36:49.216Z,84.20
2023-01-22T03:39:15.822Z,99.90
2023-01-22T03:41:42.447Z,80.10
2023-01-22T03:44:11.911Z,99.90
2023-01-22T03:46:40.226Z,74.40
2023-01-22T03:49:07.709Z,14.00
2023-01-22T03:51:34.400Z,1.00
2023-01-22T03:54:01.026Z,4.00
2023-01-22T03:56:27.793Z,1.00
2023-01-22T03:58:54.479Z,1.00
2023-01-22T04:01:22.820Z,1.00
2023-01-22T04:03:50.035Z,1.00
2023-01-22T04:06:16.892Z,1.00
2023-01-22T04:08:44.269Z,1.00
2023-01-22T04:11:11.211Z,1.00
2023-01-22T04:13:38.642Z,1.00
2023-01-22T04:16:05.710Z,1.00
2023-01-22T04:18:32.321Z,1.00
2023-01-22T04:20:58.943Z,1.00
2023-01-22T04:23:25.631Z,1.00
2023-01-22T04:25:52.518Z,1.00
2023-01-22T04:28:19.248Z,1.00
2023-01-22T04:30:46.910Z,1.00
2023-01-22T04:33:13.585Z,1.00
2023-01-22T04:35:40.281Z,1.00
2023-01-22T04:38:07.469Z,1.00
2023-01-22T04:40:34.127Z,1.00
2023-01-22T04:43:01.968Z,1.00
2023-01-22T04:45:28.634Z,1.00
2023-01-22T04:47:55.296Z,1.00
2023-01-22T04:50:23.682Z,1.00
2023-01-22T04:52:51.219Z,1.00
2023-01-22T04:55:20.565Z,1.00
2023-01-22T04:57:47.257Z,1.00
2023-01-22T05:00:14.191Z,1.00
2023-01-22T05:02:40.932Z,1.00
2023-01-22T05:05:08.323Z,1.00
2023-01-22T05:07:35.222Z,1.00
2023-01-22T05:10:01.934Z,1.00
2023-01-22T05:12:28.562Z,1.00
2023-01-22T05:14:55.171Z,1.00
2023-01-22T05:17:21.875Z,1.00
2023-01-22T05:19:48.477Z,1.00
2023-01-22T05:22:15.215Z,1.00
2023-01-22T05:24:41.830Z,1.00
2023-01-22T05:27:08.473Z,1.00
2023-01-22T05:29:35.072Z,1.00
2023-01-22T05:32:01.764Z,1.00
2023-01-22T05:34:28.438Z,1.00
2023-01-22T05:36:55.086Z,1.00
2023-01-22T05:39:23.981Z,1.00
2023-01-22T05:41:50.809Z,1.00
2023-01-22T05:44:17.438Z,1.00
2023-01-22T05:46:44.441Z,1.00
2023-01-22T05:49:11.050Z,1.00
2023-01-22T05:51:37.688Z,1.00
2023-01-22T05:54:04.340Z,1.00
2023-01-22T05:56:31.837Z,1.00
2023-01-22T05:58:58.593Z,1.00
2023-01-22T06:01:25.442Z,1.00
2023-01-22T06:03:52.367Z,1.00
2023-01-22T06:06:19.193Z,1.00
2023-01-22T06:08:51.291Z,1.00
2023-01-22T06:11:17.972Z,1.00
2023-01-22T06:13:44.602Z,1.00
2023-01-22T06:16:11.495Z,1.00
2023-01-22T06:18:38.152Z,1.00
2023-01-22T06:21:06.416Z,1.00
2023-01-22T06:23:33.377Z,1.00
2023-01-22T06:26:01.415Z,1.00
2023-01-22T06:28:28.395Z,1.00
2023-01-22T06:30:57.522Z,1.00
2023-01-22T06:33:24.468Z,1.00
2023-01-22T06:35:54.955Z,1.00
2023-01-22T06:38:22.382Z,1.00
2023-01-22T06:40:56.105Z,1.00
2023-01-22T06:43:23.104Z,1.00
2023-01-22T06:45:49.859Z,1.00
2023-01-22T06:48:16.719Z,1.00
2023-01-22T06:50:43.653Z,1.00
2023-01-22T06:53:10.306Z,1.00
2023-01-22T06:55:37.547Z,1.00
2023-01-22T06:58:04.268Z,1.00
2023-01-22T07:00:30.947Z,1.00
2023-01-22T07:02:57.704Z,1.00
2023-01-22T07:05:24.343Z,1.00
2023-01-22T07:07:54.256Z,1.00
2023-01-22T07:10:21.389Z,1.00
2023-01-22T07:12:49.511Z,1.00
2023-01-22T07:15:16.315Z,1.00
2023-01-22T07:17:42.968Z,1.00
2023-01-22T07:20:10.196Z,1.00
2023-01-22T07:22:36.816Z,1.00
2023-01-22T07:25:03.870Z,1.00
2023-01-22T07:27:32.487Z,1.00
2023-01-22T07:29:59.163Z,1.00
2023-01-22T07:32:25.810Z,1.00
2023-01-22T07:34:52.495Z,99.90
2023-01-22T07:37:19.110Z,1.00
2023-01-22T07:39:45.709Z,1.00
2023-01-22T07:42:13.193Z,99.90
2023-01-22T07:44:42.564Z,1.00
2023-01-22T07:47:09.342Z,1.00
2023-01-22T07:49:35.986Z,1.00
2023-01-22T07:52:02.748Z,99.90
2023-01-22T07:54:29.509Z,1.00
2023-01-22T07:56:56.114Z,1.00
2023-01-22T07:59:22.802Z,1.00
2023-01-22T08:01:49.512Z,1.00
2023-01-22T08:04:16.190Z,1.00
2023-01-22T08:06:42.813Z,1.00
2023-01-22T08:09:09.457Z,1.00
2023-01-22T08:11:36.190Z,1.00
2023-01-22T08:14:02.906Z,99.90
2023-01-22T08:16:29.672Z,99.90
2023-01-22T08:18:56.314Z,1.00
2023-01-22T08:21:23.258Z,1.00
2023-01-22T08:23:49.923Z,99.90
2023-01-22T08:26:16.548Z,1.00
2023-01-22T08:28:43.178Z,1.00
2023-01-22T08:31:19.235Z,1.00
2023-01-22T08:33:53.237Z,99.90
2023-01-22T08:36:19.914Z,99.90
2023-01-22T08:38:46.571Z,59.70
2023-01-22T08:41:13.241Z,1.00
2023-01-22T08:43:42.021Z,1.00
2023-01-22T08:46:08.720Z,1.00
2023-01-22T08:48:36.331Z,1.00
2023-01-22T08:51:03.042Z,1.00
2023-01-22T08:53:33.285Z,1.00
2023-01-22T08:56:00.527Z,1.00
2023-01-22T08:58:28.118Z,1.00
2023-01-22T09:00:55.480Z,1.00
2023-01-22T09:03:22.511Z,1.00
2023-01-22T09:05:51.281Z,1.00
2023-01-22T09:08:18.426Z,1.00
2023-01-22T09:10:45.318Z,1.00
2023-01-22T09:13:12.200Z,1.00
2023-01-22T09:15:40.292Z,1.00
2023-01-22T09:18:08.204Z,1.00
2023-01-22T09:20:34.886Z,1.00
2023-01-22T09:23:01.599Z,1.00
2023-01-22T09:25:29.276Z,1.00
2023-01-22T09:28:04.998Z,1.00
2023-01-22T09:30:33.677Z,1.00
2023-01-22T09:33:00.478Z,1.00
2023-01-22T09:35:27.995Z,1.00
2023-01-22T09:37:55.073Z,1.00
2023-01-22T09:40:30.642Z,99.90
2023-01-22T09:43:04.672Z,99.90
2023-01-22T09:45:31.614Z,99.90
2023-01-22T09:48:00.898Z,99.90
2023-01-22T09:50:32.806Z,99.90
2023-01-22T09:53:01.632Z,99.90
2023-01-22T09:55:32.535Z,99.90
2023-01-22T09:58:01.673Z,99.90
2023-01-22T10:00:36.815Z,99.90
2023-01-22T10:03:06.565Z,99.90
2023-01-22T10:05:57.956Z,99.90
2023-01-22T10:08:50.322Z,99.90
2023-01-22T10:11:17.450Z,99.90
2023-01-22T10:13:44.212Z,99.90
2023-01-22T10:16:11.277Z,99.90
2023-01-22T10:18:56.708Z,99.90
2023-01-22T10:21:31.167Z,34.60
2023-01-22T10:23:58.268Z,1.00
2023-01-22T10:26:48.584Z,1.00
2023-01-22T10:29:37.150Z,1.00
2023-01-22T10:32:20.336Z,1.00
2023-01-22T10:35:01.438Z,1.00
2023-01-22T10:37:28.320Z,1.00
2023-01-22T10:39:59.480Z,1.00
2023-01-22T10:42:27.966Z,1.00
2023-01-22T10:44:56.509Z,1.00
2023-01-22T10:47:26.591Z,1.00
2023-01-22T10:50:22.972Z,1.00
2023-01-22T10:52:56.613Z,1.00
2023-01-22T10:55:30.831Z,1.00
2023-01-22T10:58:02.952Z,1.00
2023-01-22T11:00:50.282Z,1.00
2023-01-22T11:03:22.774Z,1.00
2023-01-22T11:05:53.169Z,1.00
2023-01-22T11:08:20.197Z,1.00
2023-01-22T11:10:51.767Z,1.00
2023-01-22T11:13:26.583Z,1.00
2023-01-22T11:15:58.116Z,1.00
2023-01-22T11:18:42.932Z,1.00
2023-01-22T11:21:29.788Z,9.10
2023-01-22T11:24:22.754Z,1.00
2023-01-22T11:27:08.534Z,1.00
2023-01-22T11:30:05.836Z,1.00
2023-01-22T11:33:03.028Z,1.00
2023-01-22T11:35:39.294Z,1.00
2023-01-22T11:38:33.693Z,1.00
2023-01-22T11:41:10.974Z,1.00
2023-01-22T11:43:43.725Z,1.00
2023-01-22T11:46:24.176Z,1.00
2023-01-22T11:49:19.570Z,1.00
2023-01-22T11:51:50.355Z,1.00
2023-01-22T11:54:42.772Z,1.00
2023-01-22T11:57:39.677Z,1.00
2023-01-22T12:00:38.428Z,1.60
2023-01-22T12:03:22.944Z,36.10
2023-01-22T12:05:56.192Z,99.90
2023-01-22T12:08:34.713Z,95.50
2023-01-22T12:11:16.347Z,99.90
2023-01-22T12:14:10.653Z,99.90
2023-01-22T12:16:58.361Z,99.90
2023-01-22T12:19:33.903Z,99.90
2023-01-22T12:22:21.849Z,99.90
2023-01-22T12:24:51.765Z,99.90
2023-01-22T12:27:30.707Z,99.90
2023-01-22T12:30:19.809Z,99.90
2023-01-22T12:32:51.367Z,99.90
2023-01-22T12:35:21.867Z,99.90
2023-01-22T12:38:05.091Z,99.90
2023-01-22T12:40:44.600Z,99.90
2023-01-22T12:43:11.317Z,99.90
2023-01-22T12:45:59.031Z,99.90
2023-01-22T12:48:37.930Z,99.90
2023-01-22T12:51:04.703Z,99.90
2023-01-22T12:53:36.174Z,99.90
2023-01-22T12:56:05.035Z,99.90
2023-01-22T12:58:34.242Z,99.90
2023-01-22T13:01:06.463Z,99.90
2023-01-22T13:03:33.570Z,99.90
2023-01-22T13:06:01.688Z,99.90
2023-01-22T13:08:40.289Z,99.90
2023-01-22T13:11:27.204Z,99.90
2023-01-22T13:14:15.513Z,99.90
2023-01-22T13:16:42.735Z,99.90
2023-01-22T13:19:21.034Z,99.90
2023-01-22T13:21:47.743Z,99.90
2023-01-22T13:24:16.927Z,99.90
2023-01-22T13:27:00.558Z,99.90
2023-01-22T13:29:31.751Z,99.90
2023-01-22T13:32:03.677Z,99.90
2023-01-22T13:34:30.551Z,99.90
2023-01-22T13:36:57.256Z,99.90
2023-01-22T13:39:31.750Z,99.90
2023-01-22T13:42:03.139Z,99.90
2023-01-22T13:44:49.514Z,99.90
2023-01-22T13:47:28.298Z,99.90
2023-01-22T13:49:54.992Z,99.90
2023-01-22T13:52:21.699Z,99.90
2023-01-22T13:55:06.542Z,99.90
2023-01-22T13:57:33.197Z,99.90
2023-01-22T14:00:01.196Z,99.90
2023-01-22T14:02:30.111Z,99.90
2023-01-22T14:04:57.024Z,99.90
2023-01-22T14:07:34.342Z,99.90
2023-01-22T14:10:23.272Z,99.90
2023-01-22T14:13:07.044Z,99.90
2023-01-22T14:15:33.745Z,99.90
2023-01-22T14:18:16.102Z,99.90
2023-01-22T14:20:44.633Z,99.90
2023-01-22T14:23:11.481Z,99.90
2023-01-22T14:25:46.816Z,99.90
2023-01-22T14:28:13.533Z,99.90
2023-01-22T14:30:40.383Z,99.90
2023-01-22T14:33:07.523Z,99.90
2023-01-22T14:35:34.172Z,99.90
2023-01-22T14:38:01.228Z,99.90
2023-01-22T14:40:27.966Z,99.90
2023-01-22T14:42:54.597Z,99.90
2023-01-22T14:45:21.273Z,99.90
2023-01-22T14:47:51.820Z,99.90
2023-01-22T14:50:19.415Z,99.90
2023-01-22T14:52:46.754Z,99.90
2023-01-22T14:55:13.629Z,99.90
2023-01-22T14:57:40.537Z,99.90
2023-01-22T15:00:08.006Z,99.90
2023-01-22T15:02:37.498Z,99.90
2023-01-22T15:05:04.823Z,99.90
2023-01-22T15:07:33.756Z,99.90
2023-01-22T15:10:01.227Z,99.90
2023-01-22T15:12:28.071Z,99.90
2023-01-22T15:14:54.717Z,99.90
2023-01-22T15:17:24.056Z,1.00
2023-01-22T15:19:51.328Z,1.00
2023-01-22T15:22:18.347Z,1.00
2023-01-22T15:24:45.175Z,1.00
2023-01-22T15:27:12.017Z,1.00
2023-01-22T15:29:38.743Z,1.00
2023-01-22T15:32:05.627Z,1.00
2023-01-22T15:34:32.307Z,1.00
2023-01-22T15:36:58.971Z,1.00
2023-01-22T15:39:25.661Z,1.00
2023-01-22T15:41:52.375Z,1.00
2023-01-22T15:44:19.054Z,1.00
2023-01-22T15:46:46.407Z,1.00
2023-01-22T15:49:13.191Z,1.00
2023-01-22T15:51:40.711Z,1.00
2023-01-22T15:54:07.874Z,1.00
2023-01-22T15:56:36.083Z,1.00
2023-01-22T15:59:03.108Z,1.00
2023-01-22T16:01:29.838Z,1.00
2023-01-22T16:03:56.846Z,1.00
2023-01-22T16:06:28.118Z,1.00
2023-01-22T16:08:57.625Z,1.00
2023-01-22T16:11:24.631Z,1.00
2023-01-22T16:13:51.303Z,1.00
2023-01-22T16:16:19.391Z,1.00
2023-01-22T16:18:46.487Z,1.00
2023-01-22T16:21:14.601Z,1.00
2023-01-22T16:23:42.962Z,1.00
2023-01-22T16:26:14.051Z,1.00
2023-01-22T16:28:41.470Z,1.00
2023-01-22T16:31:09.979Z,1.00
2023-01-22T16:33:37.294Z,1.00
2023-01-22T16:36:05.281Z,1.00
2023-01-22T16:38:32.149Z,1.00
2023-01-22T16:41:25.010Z,1.00
2023-01-22T16:44:09.390Z,1.00
2023-01-22T16:46:40.437Z,1.00
2023-01-22T16:49:08.222Z,1.00
2023-01-22T16:51:39.284Z,1.00
2023-01-22T16:54:06.682Z,1.00
2023-01-22T16:56:33.610Z,1.00
2023-01-22T16:59:00.301Z,30.40
2023-01-22T17:01:28.523Z,80.00
2023-01-22T17:03:55.235Z,99.90
2023-01-22T17:06:45.493Z,99.90
2023-01-22T17:09:18.416Z,99.90
2023-01-22T17:11:46.938Z,99.90
2023-01-22T17:14:13.809Z,99.90
2023-01-22T17:16:40.508Z,99.90
2023-01-22T17:19:07.201Z,99.90
2023-01-22T17:21:33.944Z,99.90
2023-01-22T17:24:00.613Z,99.90
2023-01-22T17:26:27.320Z,99.90
2023-01-22T17:28:54.164Z,99.90
2023-01-22T17:31:22.184Z,99.90
2023-01-22T17:33:49.046Z,99.90
2023-01-22T17:36:16.603Z,99.90
2023-01-22T17:38:43.266Z,1.00
2023-01-22T17:41:11.689Z,1.00
2023-01-22T17:43:38.964Z,1.00
2023-01-22T17:46:10.769Z,1.00
2023-01-22T17:48:37.596Z,1.00
2023-01-22T17:51:15.403Z,1.00
2023-01-22T17:53:42.997Z,1.00
2023-01-22T17:56:13.390Z,1.00
2023-01-22T17:58:47.834Z,1.00
2023-01-22T18:01:15.371Z,1.00
2023-01-22T18:03:42.171Z,1.00
2023-01-22T18:06:10.203Z,99.90
2023-01-22T18:08:39.298Z,99.90
2023-01-22T18:11:08.075Z,99.90
2023-01-22T18:13:37.083Z,99.90
2023-01-22T18:16:05.036Z,99.90
2023-01-22T18:18:34.266Z,99.90
2023-01-22T18:21:01.044Z,99.90
2023-01-22T18:23:30.416Z,99.90
2023-01-22T18:25:58.275Z,67.80
2023-01-22T18:28:29.033Z,77.40
2023-01-22T18:30:56.069Z,99.90
2023-01-22T18:33:28.475Z,71.30
2023-01-22T18:35:55.163Z,29.20
2023-01-22T18:38:25.179Z,40.00
2023-01-22T18:40:52.846Z,52.70
2023-01-22T18:43:22.148Z,34.10
2023-01-22T18:45:48.893Z,49.80
2023-01-22T18:48:15.872Z,10.90
2023-01-22T18:50:53.662Z,29.50
2023-01-22T18:53:23.391Z,63.00
2023-01-22T18:55:50.228Z,26.60
2023-01-22T18:58:37.321Z,36.10
2023-01-22T19:01:14.633Z,14.60
2023-01-22T19:03:42.154Z,1.00
2023-01-22T19:06:16.356Z,1.00
2023-01-22T19:08:49.757Z,1.00
2023-01-22T19:11:19.937Z,1.00
2023-01-22T19:13:47.670Z,1.00
2023-01-22T19:16:15.918Z,1.00
2023-01-22T19:18:43.100Z,1.00
2023-01-22T19:21:14.627Z,1.00
2023-01-22T19:23:53.455Z,1.00
2023-01-22T19:26:27.358Z,1.00
2023-01-22T19:29:01.748Z,1.00
2023-01-22T19:31:34.166Z,1.00
2023-01-22T19:34:09.932Z,1.00
2023-01-22T19:39:31.523Z,1.00
2023-01-22T19:42:06.586Z,1.00
2023-01-22T19:44:38.455Z,1.00
2023-01-22T19:47:11.326Z,1.00
2023-01-22T19:49:38.205Z,13.30
2023-01-22T19:52:04.961Z,27.50
2023-01-22T19:54:31.795Z,30.00
2023-01-22T19:56:58.671Z,54.50
2023-01-22T19:59:27.359Z,99.90
2023-01-22T20:02:00.353Z,93.40
2023-01-22T20:04:29.793Z,99.90
2023-01-22T20:07:05.373Z,99.90
2023-01-22T20:09:35.248Z,99.90
2023-01-22T20:12:02.799Z,99.90
2023-01-22T20:14:37.598Z,99.90
2023-01-22T20:17:09.499Z,99.90
2023-01-22T20:19:38.254Z,99.90
2023-01-22T20:22:07.196Z,99.90
2023-01-22T20:24:34.638Z,99.90
2023-01-22T20:27:01.465Z,99.90
2023-01-22T20:29:28.341Z,99.90
2023-01-22T20:32:00.557Z,99.90
2023-01-22T20:34:27.285Z,99.90
2023-01-22T20:36:53.948Z,99.90
2023-01-22T20:39:20.670Z,99.90
2023-01-22T20:41:47.385Z,99.90
2023-01-22T20:44:14.232Z,99.90
2023-01-22T20:46:48.838Z,99.90
2023-01-22T20:49:15.501Z,99.90
2023-01-22T20:51:42.654Z,99.90
2023-01-22T20:54:09.647Z,99.90
2023-01-22T20:56:36.322Z,99.90
2023-01-22T20:59:03.998Z,70.40
2023-01-22T21:01:31.049Z,16.30
2023-01-22T21:03:57.940Z,1.00
2023-01-22T21:06:27.252Z,1.00
2023-01-22T21:08:56.141Z,1.00
2023-01-22T21:11:23.184Z,6.80
2023-01-22T21:13:50.545Z,38.90
2023-01-22T21:16:23.288Z,51.20
2023-01-22T21:18:49.966Z,99.90
2023-01-22T21:21:18.708Z,99.90
2023-01-22T21:23:47.489Z,99.90
2023-01-22T21:26:19.337Z,99.90
2023-01-22T21:28:47.920Z,99.90
2023-01-22T21:31:16.620Z,99.90
2023-01-22T21:33:43.846Z,99.90
2023-01-22T21:36:10.923Z,99.90
2023-01-22T21:38:37.759Z,99.90
2023-01-22T21:41:09.758Z,99.90
2023-01-22T21:43:55.426Z,99.90
2023-01-22T21:46:22.793Z,99.90
2023-01-22T21:48:49.781Z,99.90
2023-01-22T21:51:16.430Z,99.90
2023-01-22T21:53:44.933Z,99.90
2023-01-22T21:56:11.569Z,99.90
2023-01-22T21:58:42.278Z,99.90
2023-01-22T22:01:09.187Z,99.90
2023-01-22T22:03:35.912Z,99.90
2023-01-22T22:06:02.594Z,99.90
2023-01-22T22:08:29.294Z,99.90
2023-01-22T22:10:56.018Z,99.90
2023-01-22T22:13:22.655Z,99.90
2023-01-22T22:15:49.527Z,99.90
2023-01-22T22:18:16.175Z,99.90
2023-01-22T22:20:42.816Z,99.90
2023-01-22T22:23:09.490Z,99.90
2023-01-22T22:25:36.234Z,99.90
2023-01-22T22:28:02.959Z,99.90
2023-01-22T22:30:29.676Z,99.90
2023-01-22T22:32:56.341Z,99.90
2023-01-22T22:35:23.063Z,99.90
2023-01-22T22:37:49.693Z,99.90
2023-01-22T22:40:16.746Z,99.90
2023-01-22T22:42:43.559Z,99.90
2023-01-22T22:45:10.435Z,99.90
2023-01-22T22:47:37.062Z,99.90
2023-01-22T22:50:04.734Z,99.90
2023-01-22T22:52:33.467Z,99.90
2023-01-22T22:55:00.129Z,99.90
2023-01-22T22:57:26.766Z,99.90
2023-01-22T22:59:53.390Z,99.90
2023-01-22T23:02:20.764Z,99.90
2023-01-22T23:04:47.457Z,99.90
2023-01-22T23:07:14.178Z,99.90
2023-01-22T23:09:40.803Z,99.90
2023-01-22T23:12:07.924Z,99.90
2023-01-22T23:14:34.568Z,99.90
2023-01-22T23:17:02.120Z,99.90
2023-01-22T23:19:28.969Z,99.90
2023-01-22T23:21:57.584Z,99.90
2023-01-22T23:24:24.542Z,99.90
2023-01-22T23:26:51.188Z,99.90
2023-01-22T23:29:22.476Z,99.90
2023-01-22T23:31:49.407Z,99.90
2023-01-22T23:34:17.751Z,99.90
2023-01-22T23:36:45.281Z,99.90
2023-01-22T23:39:13.283Z,99.90
2023-01-22T23:41:40.146Z,99.90
2023-01-22T23:44:06.787Z,99.90
2023-01-22T23:46:35.009Z,99.90
2023-01-22T23:49:01.761Z,99.90
2023-01-22T23:51:28.491Z,99.90
2023-01-22T23:53:55.181Z,99.90
2023-01-22T23:56:24.219Z,99.90
2023-01-22T23:58:53.896Z,99.90
